Time;durP1;ratioP1;P1;durP2;ratioP2;P2;SDS_P1;SDS_P2;PMS_P1;PMS_P2;Temp;Humidity;BMP_temperature;BMP_pressure;BME280_temperature;BME280_humidity;BME280_pressure;Samples;Min_cycle;Max_cycle;Signal;HPM_P1;HPM_P2
2022/04/21 00:00:24;;;;;;;5.63;4.10;;;8.70;59.00;;;;;;4972326;28;20151;-85
2022/04/21 00:02:49;;;;;;;6.18;4.43;;;8.60;59.00;;;;;;4973620;28;20649;-84
2022/04/21 00:05:15;;;;;;;6.50;4.30;;;8.60;59.20;;;;;;4957298;28;20023;-86
2022/04/21 00:07:41;;;;;;;5.82;4.15;;;8.60;59.30;;;;;;4967938;28;20062;-85
2022/04/21 00:10:08;;;;;;;5.53;4.13;;;8.60;59.30;;;;;;4959226;28;20505;-85
2022/04/21 00:12:34;;;;;;;6.90;4.60;;;8.60;59.40;;;;;;4958728;28;20039;-84
2022/04/21 00:15:01;;;;;;;7.63;4.68;;;8.60;59.50;;;;;;4959494;28;20023;-86
2022/04/21 00:17:26;;;;;;;5.60;4.72;;;8.60;59.70;;;;;;4973702;28;20157;-85
2022/04/21 00:19:52;;;;;;;4.93;4.35;;;8.50;59.70;;;;;;4978240;28;20089;-85
2022/04/21 00:25:03;;;;;;;7.00;5.10;;;8.40;59.70;;;;;;4972363;28;20034;-84
2022/04/21 00:27:28;;;;;;;6.50;4.60;;;8.40;59.80;;;;;;4967805;28;20039;-85
2022/04/21 00:29:56;;;;;;;7.93;4.90;;;8.30;59.80;;;;;;4959095;28;20027;-86
2022/04/21 00:32:21;;;;;;;5.53;4.88;;;8.30;60.00;;;;;;4981795;28;20031;-84
2022/04/21 00:34:47;;;;;;;5.90;4.85;;;8.30;60.10;;;;;;4957493;28;20117;-88
2022/04/21 00:37:13;;;;;;;5.72;4.78;;;8.20;60.10;;;;;;4968504;28;20031;-84
2022/04/21 00:39:39;;;;;;;7.57;5.25;;;8.10;60.20;;;;;;4975718;28;20032;-86
2022/04/21 00:42:04;;;;;;;6.60;4.85;;;8.10;60.90;;;;;;4958671;28;20050;-84
2022/04/21 00:44:30;;;;;;;7.93;5.53;;;8.10;60.50;;;;;;4956234;28;20039;-86
2022/04/21 00:47:00;;;;;;;9.00;5.68;;;8.10;60.60;;;;;;4957008;28;20034;-86
2022/04/21 00:49:26;;;;;;;6.80;5.13;;;8.10;60.80;;;;;;4959990;28;20031;-86
2022/04/21 00:51:54;;;;;;;6.60;5.75;;;8.10;60.80;;;;;;4960762;28;20145;-86
2022/04/21 00:54:20;;;;;;;6.43;5.72;;;8.10;60.90;;;;;;4957264;28;20647;-86
2022/04/21 00:56:47;;;;;;;8.82;6.22;;;8.00;60.90;;;;;;4953011;28;20027;-85
2022/04/21 00:59:12;;;;;;;6.10;5.32;;;8.00;61.00;;;;;;4959716;28;20054;-86
2022/04/21 01:04:24;;;;;;;7.78;6.47;;;8.00;61.70;;;;;;4974529;28;20081;-84
2022/04/21 01:06:52;;;;;;;7.40;6.22;;;8.00;61.10;;;;;;4976361;28;20510;-84
2022/04/21 01:09:17;;;;;;;10.10;6.45;;;8.00;61.30;;;;;;4970602;28;20127;-86
2022/04/21 01:11:44;;;;;;;6.53;5.85;;;7.90;61.40;;;;;;4955673;28;20042;-86
2022/04/21 01:14:10;;;;;;;7.85;6.57;;;8.00;61.60;;;;;;4959721;28;20837;-86
2022/04/21 01:16:36;;;;;;;7.30;6.00;;;8.00;61.60;;;;;;4977911;28;20082;-85
2022/04/21 01:19:02;;;;;;;8.52;6.20;;;8.00;61.60;;;;;;4964148;28;20035;-87
2022/04/21 01:21:27;;;;;;;6.60;6.00;;;7.90;61.40;;;;;;4962019;28;20038;-86
2022/04/21 01:23:53;;;;;;;9.13;7.00;;;7.90;61.50;;;;;;4961721;28;20023;-85
2022/04/21 01:26:19;;;;;;;7.05;6.35;;;7.90;61.50;;;;;;4958375;28;20022;-84
2022/04/21 01:28:45;;;;;;;9.13;6.57;;;7.80;61.60;;;;;;4954335;28;20107;-87
2022/04/21 01:31:11;;;;;;;10.40;6.47;;;7.80;61.80;;;;;;4968217;28;20120;-84
2022/04/21 01:33:38;;;;;;;8.95;6.20;;;7.80;61.80;;;;;;4973937;28;20115;-83
2022/04/21 01:36:04;;;;;;;9.07;6.68;;;7.80;62.00;;;;;;4974792;28;20029;-84
2022/04/21 01:41:14;;;;;;;7.53;6.05;;;7.80;62.10;;;;;;4971903;28;20042;-84
2022/04/21 01:43:43;;;;;;;7.47;6.47;;;7.80;62.00;;;;;;4959776;28;20030;-86
2022/04/21 01:46:09;;;;;;;9.18;6.20;;;7.80;62.00;;;;;;4957791;28;20019;-85
2022/04/21 01:48:35;;;;;;;8.80;6.03;;;7.70;62.10;;;;;;4958445;28;20051;-85
2022/04/21 01:51:01;;;;;;;8.95;6.30;;;7.70;62.10;;;;;;4958206;28;20117;-85
2022/04/21 01:53:27;;;;;;;6.70;6.00;;;7.70;62.30;;;;;;4976070;28;20042;-86
2022/04/21 01:55:53;;;;;;;9.15;6.32;;;7.70;62.30;;;;;;4949391;28;20027;-85
2022/04/21 01:58:18;;;;;;;8.63;6.55;;;7.70;62.40;;;;;;4950943;28;20034;-85
2022/04/21 02:00:44;;;;;;;9.15;6.88;;;7.60;62.40;;;;;;4956867;28;20018;-86
2022/04/21 02:03:10;;;;;;;6.90;6.22;;;7.60;62.50;;;;;;4955936;28;20031;-84
2022/04/21 02:05:35;;;;;;;8.68;6.60;;;7.60;62.60;;;;;;4957622;29;20608;-85
2022/04/21 02:08:02;;;;;;;11.05;6.70;;;7.60;62.60;;;;;;4955845;28;20131;-86
2022/04/21 02:10:28;;;;;;;9.30;6.78;;;7.60;62.60;;;;;;4971822;28;20030;-86
2022/04/21 02:12:53;;;;;;;8.85;6.65;;;7.50;62.60;;;;;;4961397;28;20109;-86
2022/04/21 02:15:19;;;;;;;9.52;7.07;;;7.50;62.60;;;;;;4969282;28;20714;-87
2022/04/21 02:17:45;;;;;;;8.75;7.10;;;7.50;62.70;;;;;;4961664;28;20073;-87
2022/04/21 02:20:15;;;;;;;7.50;6.80;;;7.50;62.80;;;;;;4962599;28;20022;-86
2022/04/21 02:22:41;;;;;;;10.38;7.28;;;7.40;62.90;;;;;;4974441;28;20027;-86
2022/04/21 02:25:09;;;;;;;8.48;6.82;;;7.40;62.90;;;;;;4960048;28;20019;-85
2022/04/21 02:27:37;;;;;;;10.25;7.32;;;7.40;63.00;;;;;;4966737;28;20047;-86
2022/04/21 02:30:07;;;;;;;9.20;6.93;;;7.40;63.20;;;;;;4956543;28;20081;-86
2022/04/21 02:33:08;;;;;;;9.95;7.15;;;7.40;63.30;;;;;;4992603;23;20039;-87
2022/04/21 02:36:22;;;;;;;7.80;6.88;;;7.30;63.40;;;;;;4955833;28;20038;-87
2022/04/21 02:39:36;;;;;;;12.90;7.63;;;7.30;63.40;;;;;;4974236;28;20078;-87
2022/04/21 02:42:46;;;;;;;11.38;8.23;;;7.30;63.20;;;;;;4964597;28;20032;-87
2022/04/21 02:45:38;;;;;;;8.77;7.53;;;7.30;63.10;;;;;;4951020;28;20085;-86
2022/04/21 02:48:38;;;;;;;9.20;7.93;;;7.20;63.20;;;;;;4955519;28;20036;-87
2022/04/21 02:51:11;;;;;;;9.40;7.68;;;7.20;63.50;;;;;;4938505;28;20042;-87
2022/04/21 02:57:21;;;;;;;9.82;7.85;;;7.10;63.50;;;;;;4966920;28;20074;-87
2022/04/21 03:00:09;;;;;;;9.27;7.68;;;7.10;63.60;;;;;;4971939;28;20392;-87
2022/04/21 03:03:17;;;;;;;9.40;7.45;;;7.10;63.80;;;;;;4957884;28;20023;-87
2022/04/21 03:10:21;;;;;;;11.95;7.95;;;7.00;63.80;;;;;;4970215;28;20128;-87
2022/04/21 03:13:10;;;;;;;11.40;8.30;;;7.00;63.80;;;;;;4964933;28;20042;-88
2022/04/21 03:19:53;;;;;;;11.65;7.82;;;7.00;63.80;;;;;;4972596;28;20092;-86
2022/04/21 03:25:17;;;;;;;11.48;7.68;;;6.90;63.70;;;;;;4996322;28;20022;-85
2022/04/21 03:28:03;;;;;;;10.45;8.60;;;6.90;63.80;;;;;;4989635;28;20481;-87
2022/04/21 03:30:29;;;;;;;9.73;8.20;;;6.90;64.10;;;;;;4960007;28;20019;-87
2022/04/21 03:32:54;;;;;;;9.75;7.78;;;6.80;63.80;;;;;;4961475;28;20049;-87
2022/04/21 03:35:20;;;;;;;9.98;8.15;;;6.80;64.00;;;;;;4958270;28;20050;-87
2022/04/21 03:37:45;;;;;;;11.95;8.95;;;6.80;64.20;;;;;;4957796;28;20027;-87
2022/04/21 03:40:11;;;;;;;10.65;8.93;;;6.80;64.50;;;;;;4976211;28;20023;-85
2022/04/21 03:42:38;;;;;;;11.00;9.10;;;6.80;64.60;;;;;;4984675;28;20026;-86
2022/04/21 03:45:05;;;;;;;12.93;9.18;;;6.80;64.60;;;;;;4958390;28;20015;-87
2022/04/21 03:47:30;;;;;;;11.38;9.25;;;6.80;64.60;;;;;;4960941;28;20027;-86
2022/04/21 03:49:56;;;;;;;11.70;9.32;;;6.80;64.70;;;;;;4959508;28;20060;-87
2022/04/21 03:52:22;;;;;;;15.18;9.13;;;6.70;64.90;;;;;;4956787;28;21126;-87
2022/04/21 03:54:48;;;;;;;11.52;9.43;;;6.70;65.00;;;;;;4976227;28;20124;-87
2022/04/21 03:57:14;;;;;;;13.52;9.85;;;6.60;65.00;;;;;;4954396;28;20027;-86
2022/04/21 03:59:39;;;;;;;12.90;9.95;;;6.60;65.20;;;;;;4973979;28;20091;-87
2022/04/21 04:02:05;;;;;;;13.18;10.07;;;6.60;65.20;;;;;;4955444;28;20026;-86
2022/04/21 04:04:35;;;;;;;13.63;9.82;;;6.60;65.30;;;;;;4957092;28;20073;-86
2022/04/21 04:12:32;;;;;;;15.52;10.32;;;6.50;65.40;;;;;;4974316;28;20093;-86
2022/04/21 04:14:58;;;;;;;11.32;9.30;;;6.50;65.40;;;;;;4955736;28;20023;-86
2022/04/21 04:17:24;;;;;;;12.88;10.13;;;6.40;65.50;;;;;;4955928;28;20027;-86
2022/04/21 04:19:49;;;;;;;15.95;10.55;;;6.40;65.60;;;;;;4952454;28;20042;-87
2022/04/21 04:22:15;;;;;;;14.32;10.43;;;6.40;65.80;;;;;;4956033;28;20042;-86
2022/04/21 04:24:43;;;;;;;13.35;10.57;;;6.40;66.00;;;;;;4948298;28;20058;-86
2022/04/21 04:27:08;;;;;;;13.93;9.93;;;6.40;66.20;;;;;;4950489;28;20062;-86
2022/04/21 04:29:34;;;;;;;13.63;10.65;;;6.40;66.30;;;;;;4955626;28;20083;-87
2022/04/21 04:32:01;;;;;;;17.05;11.35;;;6.40;66.80;;;;;;4955128;28;20031;-87
2022/04/21 04:34:27;;;;;;;13.57;10.43;;;6.40;66.30;;;;;;4957047;28;20397;-87
2022/04/21 04:36:52;;;;;;;15.85;11.25;;;6.40;66.40;;;;;;4956136;28;20026;-87
2022/04/21 04:39:18;;;;;;;16.33;12.02;;;6.40;66.50;;;;;;4957078;28;20437;-87
2022/04/21 04:44:28;;;;;;;14.95;10.82;;;6.40;66.90;;;;;;4973137;28;20030;-87
2022/04/21 04:46:57;;;;;;;14.55;10.82;;;6.50;66.90;;;;;;4951603;28;20513;-87
2022/04/21 04:49:24;;;;;;;16.52;11.57;;;6.50;67.00;;;;;;4965477;28;20022;-87
2022/04/21 04:51:50;;;;;;;15.30;11.45;;;6.50;67.60;;;;;;4955718;28;20653;-87
2022/04/21 04:54:16;;;;;;;14.15;11.82;;;6.60;67.20;;;;;;4952505;28;20042;-86
2022/04/21 04:56:44;;;;;;;15.73;11.48;;;6.60;67.40;;;;;;4949262;28;20027;-87
2022/04/21 04:59:10;;;;;;;14.10;11.20;;;6.70;67.50;;;;;;4974126;28;20019;-87
2022/04/21 05:01:41;;;;;;;18.90;10.85;;;6.70;67.50;;;;;;4956092;28;20030;-87
2022/04/21 05:04:15;;;;;;;17.83;12.73;;;6.80;67.60;;;;;;4972384;28;20111;-87
2022/04/21 05:06:46;;;;;;;18.80;11.77;;;6.80;67.70;;;;;;4955965;28;20066;-87
2022/04/21 05:09:15;;;;;;;13.85;10.40;;;6.90;67.90;;;;;;4963957;28;20023;-88
2022/04/21 05:11:44;;;;;;;14.52;11.68;;;7.00;67.90;;;;;;4957640;28;20596;-87
2022/04/21 05:14:15;;;;;;;15.82;11.70;;;7.10;67.80;;;;;;4948028;28;20027;-88
2022/04/21 05:16:55;;;;;;;15.33;10.97;;;7.20;67.80;;;;;;4952742;28;20109;-88
2022/04/21 05:19:24;;;;;;;12.48;10.00;;;7.30;67.70;;;;;;4939297;28;20348;-88
2022/04/21 05:21:51;;;;;;;13.23;10.60;;;7.30;67.50;;;;;;4956227;28;20082;-88
2022/04/21 05:24:17;;;;;;;17.70;11.60;;;7.40;67.60;;;;;;4957769;28;20513;-88
2022/04/21 05:26:55;;;;;;;14.18;11.13;;;7.50;67.80;;;;;;4956362;28;20129;-88
2022/04/21 05:32:06;;;;;;;16.17;11.43;;;7.70;67.80;;;;;;4976211;28;20424;-88
2022/04/21 05:34:32;;;;;;;13.05;10.20;;;7.70;67.70;;;;;;4956506;28;20178;-88
2022/04/21 05:36:59;;;;;;;16.77;11.38;;;7.80;67.80;;;;;;4965890;28;20466;-88
2022/04/21 05:39:26;;;;;;;14.45;11.55;;;7.90;67.80;;;;;;4955366;28;20027;-88
2022/04/21 05:41:53;;;;;;;14.50;10.95;;;7.90;67.80;;;;;;4956568;28;20015;-89
2022/04/21 05:44:20;;;;;;;14.45;10.65;;;8.00;67.90;;;;;;4955138;28;20488;-89
2022/04/21 05:46:46;;;;;;;14.63;11.07;;;8.00;67.90;;;;;;4953660;28;20031;-89
2022/04/21 05:49:12;;;;;;;12.35;10.30;;;8.10;68.10;;;;;;4957639;28;20030;-89
2022/04/21 05:51:38;;;;;;;14.68;10.68;;;8.10;68.20;;;;;;4976937;28;20488;-89
2022/04/21 05:54:05;;;;;;;18.83;10.45;;;8.10;68.20;;;;;;4959528;28;20031;-89
2022/04/21 05:56:34;;;;;;;13.68;10.20;;;8.20;68.80;;;;;;4975102;28;20398;-89
2022/04/21 05:59:01;;;;;;;15.40;11.55;;;8.10;68.30;;;;;;4958542;28;20093;-88
2022/04/21 06:01:26;;;;;;;13.55;10.95;;;8.10;68.40;;;;;;4956351;28;20024;-89
2022/04/21 06:03:52;;;;;;;14.18;10.45;;;8.20;68.70;;;;;;4951502;29;20026;-89
2022/04/21 06:06:18;;;;;;;14.07;10.77;;;8.20;68.80;;;;;;4950544;28;20030;-89
2022/04/21 06:08:44;;;;;;;16.08;11.15;;;8.20;69.00;;;;;;4958788;28;20030;-89
2022/04/21 06:11:13;;;;;;;14.60;10.77;;;8.30;69.70;;;;;;4959112;28;20042;-89
2022/04/21 06:13:40;;;;;;;16.38;10.93;;;8.40;69.30;;;;;;4953736;29;20023;-89
2022/04/21 06:16:07;;;;;;;16.75;10.07;;;8.40;69.30;;;;;;4944545;29;20062;-89
2022/04/21 06:18:33;;;;;;;15.68;10.88;;;8.40;69.40;;;;;;4949441;28;20058;-88
2022/04/21 06:20:59;;;;;;;15.38;10.63;;;8.40;69.50;;;;;;4958782;28;20561;-89
2022/04/21 06:23:25;;;;;;;18.35;9.85;;;8.40;69.40;;;;;;4955432;28;20466;-89
2022/04/21 06:25:58;;;;;;;14.13;10.50;;;8.40;69.60;;;;;;4952510;28;20045;-89
2022/04/21 06:28:28;;;;;;;14.45;10.20;;;8.40;70.00;;;;;;4957614;28;20105;-89
2022/04/21 06:30:54;;;;;;;15.13;9.95;;;8.50;70.10;;;;;;4950522;28;20031;-89
2022/04/21 06:33:32;;;;;;;14.85;10.15;;;8.60;70.20;;;;;;4959039;28;20034;-89
2022/04/21 06:35:59;;;;;;;11.63;9.25;;;8.70;70.20;;;;;;4954593;28;20078;-89
2022/04/21 06:38:27;;;;;;;12.73;9.80;;;8.80;69.90;;;;;;4957483;28;20019;-89
2022/04/21 06:40:58;;;;;;;12.95;9.88;;;9.00;70.00;;;;;;4957664;28;20105;-89
2022/04/21 06:48:57;;;;;;;13.95;10.63;;;9.50;69.80;;;;;;4971832;28;20547;-89
2022/04/21 06:51:34;;;;;;;14.18;10.07;;;9.80;69.90;;;;;;4954577;28;20047;-89
2022/04/21 06:54:00;;;;;;;13.32;10.07;;;10.00;69.90;;;;;;4965683;28;20034;-89
2022/04/21 06:56:26;;;;;;;15.38;10.15;;;10.30;69.60;;;;;;4954518;28;20061;-89
2022/04/21 06:58:51;;;;;;;12.30;10.30;;;10.50;69.40;;;;;;4957852;28;20037;-89
2022/04/21 07:01:17;;;;;;;13.95;9.68;;;10.70;69.20;;;;;;4958323;28;20114;-89
2022/04/21 07:03:44;;;;;;;11.88;9.75;;;10.90;69.00;;;;;;4958293;28;20074;-89
2022/04/21 07:06:12;;;;;;;12.18;8.75;;;11.10;68.60;;;;;;4958716;28;20034;-90
2022/04/21 07:08:37;;;;;;;12.55;8.40;;;11.30;68.30;;;;;;4950185;28;20495;-90
2022/04/21 07:11:06;;;;;;;10.23;8.25;;;11.50;68.00;;;;;;4957812;28;20030;-90
2022/04/21 07:13:43;;;;;;;13.73;7.88;;;11.80;67.80;;;;;;4973421;28;20031;-89
2022/04/21 07:16:09;;;;;;;8.93;7.47;;;12.00;67.50;;;;;;4957038;28;20450;-90
2022/04/21 07:18:35;;;;;;;9.75;7.53;;;12.20;67.00;;;;;;4957369;28;20099;-90
2022/04/21 07:21:02;;;;;;;7.78;6.97;;;12.50;66.80;;;;;;4958047;28;20474;-90
2022/04/21 07:23:31;;;;;;;32.47;21.02;;;12.70;66.50;;;;;;4957449;28;20015;-90
2022/04/21 07:25:56;;;;;;;7.22;6.03;;;13.00;66.40;;;;;;4954257;28;20099;-90
2022/04/21 07:28:22;;;;;;;6.88;5.85;;;13.40;66.10;;;;;;4953935;29;20031;-91
2022/04/21 07:30:47;;;;;;;7.40;6.10;;;13.60;65.40;;;;;;4958246;28;20058;-91
2022/04/21 07:33:15;;;;;;;10.52;5.75;;;13.80;64.90;;;;;;4958114;28;20030;-90
2022/04/21 07:35:41;;;;;;;8.85;5.53;;;14.00;64.50;;;;;;4957253;28;20390;-91
2022/04/21 07:38:14;;;;;;;6.60;4.68;;;14.20;64.20;;;;;;4942711;28;20508;-91
2022/04/21 07:40:41;;;;;;;5.78;4.47;;;14.50;64.00;;;;;;4959234;28;20504;-91
2022/04/21 07:43:12;;;;;;;5.25;4.75;;;14.80;63.50;;;;;;4965321;28;20019;-91
2022/04/21 07:45:50;;;;;;;5.60;4.82;;;15.00;62.80;;;;;;4964492;28;20025;-91
2022/04/21 07:51:40;;;;;;;6.57;4.72;;;15.50;62.20;;;;;;4969246;28;20125;-91
2022/04/21 07:54:09;;;;;;;5.35;4.57;;;15.80;61.80;;;;;;4956601;28;20031;-91
2022/04/21 07:56:37;;;;;;;11.27;4.53;;;16.00;61.30;;;;;;4963747;28;20088;-91
2022/04/21 07:59:12;;;;;;;4.82;4.10;;;16.20;60.60;;;;;;4953961;29;20031;-91
2022/04/21 08:01:41;;;;;;;7.40;4.55;;;16.30;60.00;;;;;;4970717;28;20045;-90
2022/04/21 08:04:09;;;;;;;5.13;4.05;;;16.50;59.70;;;;;;4964812;28;20034;-90
2022/04/21 08:06:34;;;;;;;4.25;3.85;;;16.70;59.50;;;;;;4973429;28;20033;-89
2022/04/21 08:09:01;;;;;;;3.92;3.42;;;16.90;59.40;;;;;;4950639;28;20023;-88
2022/04/21 08:11:29;;;;;;;4.18;3.38;;;17.10;59.00;;;;;;4963220;28;20114;-90
2022/04/21 08:13:58;;;;;;;3.83;3.30;;;17.30;58.60;;;;;;4975518;28;20027;-88
2022/04/21 08:16:29;;;;;;;5.97;3.60;;;17.50;57.90;;;;;;4975694;28;20037;-90
2022/04/21 08:19:22;;;;;;;4.23;3.80;;;17.60;57.50;;;;;;4973257;28;20026;-90
2022/04/21 08:21:48;;;;;;;4.35;3.35;;;17.80;57.60;;;;;;4962127;28;20023;-91
2022/04/21 08:33:15;;;;;;;4.82;3.53;;;19.10;56.10;;;;;;5035909;22;20048;-86
2022/04/21 08:35:41;;;;;;;4.30;3.60;;;19.40;55.80;;;;;;4914327;29;20043;-86
2022/04/21 08:38:09;;;;;;;4.13;3.45;;;19.60;55.00;;;;;;4930930;29;20042;-86
2022/04/21 08:40:36;;;;;;;4.30;3.80;;;19.90;54.40;;;;;;4930247;29;20031;-86
2022/04/21 08:43:16;;;;;;;3.85;3.50;;;20.10;53.90;;;;;;4915120;29;20043;-85
2022/04/21 08:45:46;;;;;;;4.00;3.47;;;20.30;53.20;;;;;;4919387;29;20021;-87
2022/04/21 08:48:13;;;;;;;3.42;3.13;;;20.40;52.60;;;;;;4920902;29;20039;-86
2022/04/21 08:50:39;;;;;;;4.13;3.47;;;20.50;52.50;;;;;;4927104;29;20028;-85
2022/04/21 08:53:05;;;;;;;4.47;3.83;;;20.70;52.30;;;;;;4951189;29;20032;-87
2022/04/21 08:55:32;;;;;;;5.00;3.20;;;20.80;51.90;;;;;;4933055;29;20027;-86
2022/04/21 08:57:59;;;;;;;3.50;3.17;;;21.10;51.50;;;;;;4925371;29;21194;-87
2022/04/21 09:00:24;;;;;;;4.10;3.30;;;21.30;50.90;;;;;;4930762;29;20065;-86
2022/04/21 09:02:50;;;;;;;3.38;3.08;;;21.60;50.70;;;;;;4929656;29;20027;-84
2022/04/21 09:05:17;;;;;;;4.65;3.05;;;21.50;50.20;;;;;;4910681;29;20031;-87
2022/04/21 09:07:47;;;;;;;3.38;3.08;;;21.60;49.70;;;;;;4916185;29;20028;-86
2022/04/21 09:10:14;;;;;;;3.95;3.55;;;21.90;49.50;;;;;;4907698;29;20028;-87
2022/04/21 09:13:02;;;;;;;3.65;3.00;;;22.30;49.20;;;;;;4918390;29;20027;-87
2022/04/21 09:15:33;;;;;;;5.38;3.47;;;22.70;48.40;;;;;;4912387;29;20130;-87
2022/04/21 09:18:08;;;;;;;3.70;3.40;;;23.20;47.30;;;;;;4934571;29;20032;-87
2022/04/21 09:20:35;;;;;;;3.67;3.38;;;23.70;46.60;;;;;;4919348;29;20032;-88
2022/04/21 09:23:06;;;;;;;3.33;3.03;;;24.30;46.30;;;;;;4939960;29;20071;-86
2022/04/21 09:25:45;;;;;;;3.92;2.90;;;25.00;45.20;;;;;;4934519;29;20043;-85
2022/04/21 09:28:40;;;;;;;8.07;3.17;;;25.50;44.10;;;;;;4940347;29;20059;-87
2022/04/21 09:31:08;;;;;;;4.43;3.13;;;26.10;43.20;;;;;;4928973;29;20062;-85
2022/04/21 09:33:44;;;;;;;3.45;2.83;;;26.40;42.60;;;;;;4923873;29;20038;-87
2022/04/21 09:36:10;;;;;;;4.22;3.28;;;25.70;42.20;;;;;;4937589;29;20034;-86
2022/04/21 09:38:36;;;;;;;3.83;3.10;;;24.60;43.10;;;;;;4931327;29;20476;-87
2022/04/21 09:41:10;;;;;;;4.28;2.70;;;24.80;42.60;;;;;;4939518;29;20024;-87
2022/04/21 09:43:41;;;;;;;5.07;2.83;;;25.00;42.20;;;;;;4915492;29;20031;-85
2022/04/21 09:46:25;;;;;;;2.80;2.38;;;25.30;41.90;;;;;;4924077;29;20039;-85
2022/04/21 09:48:55;;;;;;;3.10;2.65;;;25.30;41.50;;;;;;4918878;29;20039;-85
2022/04/21 09:51:25;;;;;;;3.53;2.95;;;24.90;41.70;;;;;;4922115;29;20028;-86
2022/04/21 09:54:02;;;;;;;3.25;2.45;;;24.60;41.40;;;;;;4909972;29;20024;-86
2022/04/21 09:56:35;;;;;;;3.25;2.95;;;23.90;41.90;;;;;;4934237;29;20403;-86
2022/04/21 09:59:04;;;;;;;2.40;2.20;;;23.80;43.00;;;;;;4924929;29;20028;-87
2022/04/21 10:01:30;;;;;;;2.50;2.30;;;24.10;42.00;;;;;;4919860;29;20243;-87
2022/04/21 10:03:56;;;;;;;3.80;2.10;;;23.40;42.20;;;;;;4911109;29;20021;-84
2022/04/21 10:06:22;;;;;;;2.50;1.63;;;22.30;43.30;;;;;;4922384;29;20038;-86
2022/04/21 10:08:51;;;;;;;1.20;1.10;;;22.70;43.40;;;;;;4913462;29;20662;-86
2022/04/21 10:11:23;;;;;;;1.63;1.52;;;23.70;41.70;;;;;;4926297;29;20091;-85
2022/04/21 10:13:53;;;;;;;4.10;1.90;;;23.40;41.70;;;;;;4917603;29;20031;-86
2022/04/21 10:16:19;;;;;;;2.65;2.45;;;23.90;41.10;;;;;;4919987;29;20066;-86
2022/04/21 10:18:52;;;;;;;10.88;8.00;;;24.80;40.50;;;;;;4916183;29;20065;-86
2022/04/21 10:21:57;;;;;;;2.78;2.58;;;26.10;40.20;;;;;;4920970;29;20564;-86
2022/04/21 10:24:27;;;;;;;3.53;2.38;;;27.30;39.10;;;;;;4925401;29;20032;-83
2022/04/21 10:26:53;;;;;;;2.63;2.42;;;28.00;38.60;;;;;;4933876;29;20106;-83
2022/04/21 10:29:23;;;;;;;2.92;2.35;;;28.30;38.10;;;;;;4929279;29;20036;-84
2022/04/21 10:32:14;;;;;;;3.67;3.00;;;27.40;37.80;;;;;;4917229;29;20023;-87
2022/04/21 10:34:43;;;;;;;3.35;2.90;;;26.40;38.40;;;;;;4911474;29;20087;-88
2022/04/21 10:37:08;;;;;;;2.90;2.70;;;26.30;39.00;;;;;;4921542;29;20031;-91
2022/04/21 10:40:14;;;;;;;3.50;2.80;;;26.60;39.00;;;;;;4930762;29;20040;-90
2022/04/21 10:43:07;;;;;;;4.80;2.90;;;26.70;39.00;;;;;;4930417;29;20397;-89
2022/04/21 10:45:33;;;;;;;5.07;3.03;;;26.60;38.90;;;;;;4914924;29;21148;-86
2022/04/21 10:48:09;;;;;;;6.15;3.38;;;25.90;39.30;;;;;;4919201;29;20697;-87
2022/04/21 10:50:36;;;;;;;3.35;3.05;;;24.20;40.70;;;;;;4918728;29;20040;-87
2022/04/21 10:58:34;;;;;;;7.03;3.47;;;23.50;42.50;;;;;;4934322;29;20090;-90
2022/04/21 11:01:12;;;;;;;3.92;3.53;;;23.50;42.40;;;;;;4911842;29;20055;-90
2022/04/21 11:04:08;;;;;;;7.45;3.63;;;23.50;42.80;;;;;;4932806;29;20061;-90
2022/04/21 11:06:44;;;;;;;4.90;3.90;;;23.00;43.40;;;;;;4910040;29;20028;-86
2022/04/21 11:09:41;;;;;;;4.80;3.05;;;22.30;43.80;;;;;;4930751;29;20032;-88
2022/04/21 11:12:08;;;;;;;3.90;3.42;;;21.60;44.20;;;;;;4926349;29;20028;-85
2022/04/21 11:14:39;;;;;;;3.55;2.88;;;21.20;44.30;;;;;;4908518;29;20038;-87
2022/04/21 11:17:06;;;;;;;3.85;3.45;;;21.00;44.40;;;;;;4921312;29;20038;-85
2022/04/21 11:19:36;;;;;;;3.53;3.22;;;21.00;45.00;;;;;;4918254;29;20043;-86
2022/04/21 11:22:09;;;;;;;5.45;3.42;;;20.70;45.70;;;;;;4919633;29;20026;-88
2022/04/21 11:24:58;;;;;;;4.00;3.65;;;20.50;45.20;;;;;;4916555;29;20024;-86
2022/04/21 11:27:25;;;;;;;4.43;3.67;;;20.40;45.30;;;;;;4916470;29;20031;-84
2022/04/21 11:29:50;;;;;;;8.88;3.97;;;20.10;45.90;;;;;;4934699;29;20055;-86
2022/04/21 11:32:20;;;;;;;5.43;3.80;;;19.80;46.30;;;;;;4920707;29;20975;-85
2022/04/21 11:35:12;;;;;;;7.63;3.40;;;19.60;46.30;;;;;;4916402;29;20019;-87
2022/04/21 11:37:57;;;;;;;3.28;3.00;;;19.40;46.90;;;;;;4915905;29;20042;-88
2022/04/21 11:40:24;;;;;;;5.47;3.17;;;19.50;46.90;;;;;;4927519;29;20062;-86
2022/04/21 11:42:50;;;;;;;3.30;3.00;;;19.70;46.90;;;;;;4938694;29;20519;-86
2022/04/21 11:45:20;;;;;;;4.78;2.90;;;19.60;46.40;;;;;;4908969;29;20055;-86
2022/04/21 11:47:46;;;;;;;4.53;2.97;;;19.60;46.60;;;;;;4936603;29;20036;-88
2022/04/21 11:50:18;;;;;;;3.47;3.17;;;19.60;46.60;;;;;;4918321;29;20038;-85
2022/04/21 11:52:46;;;;;;;4.47;3.58;;;19.60;46.80;;;;;;4941633;29;20110;-86
2022/04/21 11:55:15;;;;;;;3.80;3.45;;;19.60;46.90;;;;;;4920401;29;20039;-86
2022/04/21 11:57:42;;;;;;;4.22;3.10;;;19.70;47.00;;;;;;4925508;29;20039;-88
2022/04/21 12:00:11;;;;;;;5.15;3.17;;;19.80;47.40;;;;;;4920720;29;20140;-89
2022/04/21 12:08:11;;;;;;;3.50;3.15;;;20.30;46.90;;;;;;4941264;29;20038;-85
2022/04/21 12:10:37;;;;;;;6.50;3.30;;;20.10;46.60;;;;;;4923769;29;20118;-85
2022/04/21 12:13:03;;;;;;;4.03;2.88;;;19.90;46.90;;;;;;4917178;29;20119;-84
2022/04/21 12:15:30;;;;;;;6.60;3.17;;;19.80;47.00;;;;;;4917762;29;20027;-87
2022/04/21 12:18:03;;;;;;;8.60;3.35;;;19.60;47.10;;;;;;4930127;29;20038;-87
2022/04/21 12:20:29;;;;;;;2.85;2.63;;;19.50;47.20;;;;;;4919421;29;20389;-88
2022/04/21 12:22:55;;;;;;;9.75;3.13;;;19.40;47.20;;;;;;4930432;29;20031;-87
2022/04/21 12:25:36;;;;;;;5.63;3.30;;;19.30;47.40;;;;;;4924791;29;20020;-90
2022/04/21 12:28:04;;;;;;;4.13;3.30;;;19.10;47.50;;;;;;4912310;29;20071;-87
2022/04/21 12:30:30;;;;;;;5.10;3.13;;;19.00;47.40;;;;;;4910408;29;20405;-86
2022/04/21 12:32:56;;;;;;;4.72;2.88;;;18.90;47.40;;;;;;4916204;29;20126;-86
2022/04/21 12:35:45;;;;;;;3.22;2.92;;;18.80;47.70;;;;;;4932379;29;20036;-85
2022/04/21 12:38:57;;;;;;;5.57;2.92;;;18.80;48.20;;;;;;4926438;29;20032;-87
2022/04/21 12:41:01;;;;;;;5.68;3.00;;;18.80;48.10;;;;;;4928954;29;20318;-87
2022/04/21 12:44:08;;;;;;;3.45;3.15;;;18.90;48.60;;;;;;4914468;29;20034;-92
2022/04/21 12:46:50;;;;;;;3.70;2.65;;;19.00;48.80;;;;;;4919242;29;20032;-91
2022/04/21 12:49:56;;;;;;;3.13;2.50;;;19.00;48.70;;;;;;4921247;29;20036;-91
2022/04/21 12:53:06;;;;;;;2.65;2.45;;;19.00;48.50;;;;;;4931197;29;20280;-93
2022/04/21 12:55:51;;;;;;;3.80;2.67;;;19.00;48.80;;;;;;4919737;29;20039;-92
2022/04/21 12:59:13;;;;;;;3.15;2.53;;;19.00;48.70;;;;;;4930728;29;20051;-91
2022/04/21 13:05:04;;;;;;;2.55;2.28;;;19.00;48.60;;;;;;4940670;29;20027;-91
2022/04/21 13:08:00;;;;;;;2.83;2.17;;;19.00;48.80;;;;;;4928735;29;20020;-89
2022/04/21 13:10:45;;;;;;;3.67;2.20;;;19.00;48.90;;;;;;4919025;29;20058;-92
2022/04/21 13:13:40;;;;;;;;;;;;;;;;;;;;;
2022/04/21 13:16:09;;;;;;;2.95;2.15;;;18.70;48.70;;;;;;4935364;29;20028;-90
2022/04/21 13:18:35;;;;;;;2.83;2.05;;;18.50;48.60;;;;;;4917325;29;20527;-90
2022/04/21 13:23:48;;;;;;;1.88;1.77;;;18.00;48.80;;;;;;4930851;29;20087;-91
2022/04/21 13:26:28;;;;;;;3.83;2.25;;;18.00;49.00;;;;;;4920667;29;20052;-91
2022/04/21 13:29:23;;;;;;;1.80;1.70;;;17.90;49.10;;;;;;4925139;29;20035;-91
2022/04/21 13:35:24;;;;;;;2.80;2.30;;;17.90;49.10;;;;;;4935909;29;20066;-89
2022/04/21 13:38:26;;;;;;;2.92;2.10;;;17.80;49.20;;;;;;4935767;29;20050;-91
2022/04/21 13:41:20;;;;;;;2.63;1.90;;;17.70;49.30;;;;;;4924995;29;20492;-89
2022/04/21 13:43:46;;;;;;;6.05;2.30;;;17.70;49.20;;;;;;4952285;28;20051;-82
2022/04/21 13:46:11;;;;;;;3.88;2.65;;;17.50;49.30;;;;;;4950118;29;20016;-83
2022/04/21 13:48:37;;;;;;;2.65;2.45;;;17.40;49.30;;;;;;4925172;29;20036;-87
2022/04/21 13:51:04;;;;;;;4.18;2.80;;;17.40;49.40;;;;;;4915850;29;20051;-87
2022/04/21 13:53:31;;;;;;;4.15;3.05;;;17.30;49.50;;;;;;4933057;29;20492;-89
2022/04/21 13:55:56;;;;;;;2.50;2.30;;;17.30;49.70;;;;;;4931443;29;20172;-90
2022/04/21 13:58:22;;;;;;;2.30;2.10;;;17.30;49.70;;;;;;4921825;29;20118;-89
2022/04/21 14:00:48;;;;;;;5.82;2.17;;;17.30;49.80;;;;;;4919049;29;20042;-89
2022/04/21 14:03:14;;;;;;;2.90;2.22;;;17.30;50.00;;;;;;4938297;29;20118;-90
2022/04/21 14:05:41;;;;;;;3.78;2.17;;;17.30;50.00;;;;;;4915320;29;20050;-90
2022/04/21 14:08:11;;;;;;;4.35;1.83;;;17.30;49.90;;;;;;4932020;29;20070;-90
2022/04/21 14:10:37;;;;;;;1.83;1.38;;;17.30;49.80;;;;;;4915996;29;20032;-88
2022/04/21 14:13:04;;;;;;;1.95;1.25;;;17.30;49.70;;;;;;4917873;29;20100;-89
2022/04/21 14:15:30;;;;;;;1.42;1.33;;;17.30;49.50;;;;;;4917662;29;20024;-88
2022/04/21 14:17:55;;;;;;;1.63;1.52;;;17.30;49.40;;;;;;4919999;29;20382;-89
2022/04/21 14:20:21;;;;;;;2.80;1.65;;;17.30;49.50;;;;;;4917585;29;20104;-88